createdAt,value
2023-05-10T00:01:23.472Z,7.60
2023-05-10T00:03:50.943Z,7.05
2023-05-10T00:06:19.638Z,9.38
2023-05-10T00:09:07.622Z,6.97
2023-05-10T00:11:38.271Z,6.63
2023-05-10T00:14:06.047Z,8.50
2023-05-10T00:16:33.458Z,9.88
2023-05-10T00:19:21.676Z,8.32
2023-05-10T00:21:50.541Z,9.00
2023-05-10T00:24:24.378Z,9.98
2023-05-10T00:26:52.174Z,8.95
2023-05-10T00:29:20.830Z,9.15
2023-05-10T00:31:50.017Z,12.45
2023-05-10T00:34:17.579Z,9.07
2023-05-10T00:36:48.691Z,21.88
2023-05-10T00:39:16.147Z,9.38
2023-05-10T00:41:44.462Z,13.38
2023-05-10T00:44:12.243Z,17.63
2023-05-10T00:46:40.182Z,14.43
2023-05-10T00:49:08.519Z,10.63
2023-05-10T00:51:38.468Z,12.38
2023-05-10T00:54:06.757Z,19.23
2023-05-10T00:56:34.762Z,12.70
2023-05-10T00:59:03.048Z,11.25
2023-05-10T01:01:42.843Z,13.20
2023-05-10T01:04:13.408Z,10.65
2023-05-10T01:06:47.035Z,20.10
2023-05-10T01:09:14.573Z,18.77
2023-05-10T01:11:57.033Z,12.02
2023-05-10T01:14:25.903Z,15.43
2023-05-10T01:16:57.538Z,15.75
2023-05-10T01:19:49.940Z,11.25
2023-05-10T01:22:51.532Z,17.23
2023-05-10T01:25:42.023Z,16.20
2023-05-10T01:28:24.543Z,15.20
2023-05-10T01:30:55.027Z,14.40
2023-05-10T01:34:04.854Z,19.15
2023-05-10T01:37:05.927Z,18.55
2023-05-10T01:43:24.546Z,13.77
2023-05-10T01:49:37.334Z,20.15
2023-05-10T01:52:10.628Z,20.45
2023-05-10T01:54:42.909Z,13.52
2023-05-10T01:57:13.273Z,12.52
2023-05-10T01:59:43.931Z,16.02
2023-05-10T02:02:14.376Z,17.27
2023-05-10T02:04:43.140Z,13.10
2023-05-10T02:07:13.246Z,23.67
2023-05-10T02:09:42.307Z,23.48
2023-05-10T02:12:11.880Z,15.95
2023-05-10T02:14:42.457Z,16.50
2023-05-10T02:17:10.610Z,18.08
2023-05-10T02:19:41.966Z,25.70
2023-05-10T02:22:10.697Z,15.05
2023-05-10T02:24:39.420Z,23.42
2023-05-10T02:27:07.910Z,14.38
2023-05-10T02:29:38.054Z,23.55
2023-05-10T02:32:06.366Z,16.00
2023-05-10T02:34:34.320Z,27.90
2023-05-10T02:37:03.771Z,16.52
2023-05-10T02:39:33.170Z,15.52
2023-05-10T02:42:03.323Z,13.57
2023-05-10T02:44:32.170Z,15.35
2023-05-10T02:47:00.872Z,19.10
2023-05-10T02:49:29.270Z,21.05
2023-05-10T02:52:00.873Z,14.35
2023-05-10T02:54:35.400Z,12.65
2023-05-10T02:57:06.147Z,14.43
2023-05-10T02:59:33.766Z,14.00
2023-05-10T03:02:01.702Z,15.65
2023-05-10T03:04:29.328Z,20.95
2023-05-10T03:06:58.440Z,17.67
2023-05-10T03:09:26.125Z,18.52
2023-05-10T03:12:11.146Z,22.05
2023-05-10T03:14:49.728Z,16.58
2023-05-10T03:17:38.409Z,16.45
2023-05-10T03:20:11.494Z,17.42
2023-05-10T03:22:44.294Z,17.17
2023-05-10T03:25:14.231Z,14.88
2023-05-10T03:27:44.327Z,17.05
2023-05-10T03:30:13.653Z,12.38
2023-05-10T03:32:41.512Z,18.10
2023-05-10T03:35:14.239Z,18.27
2023-05-10T03:37:42.825Z,17.90
2023-05-10T03:40:11.624Z,13.85
2023-05-10T03:42:41.669Z,27.92
2023-05-10T03:45:09.903Z,14.98
2023-05-10T03:47:37.492Z,18.98
2023-05-10T03:50:06.602Z,23.77
2023-05-10T03:52:34.148Z,24.50
2023-05-10T03:55:03.952Z,22.02
2023-05-10T03:57:31.474Z,20.95
2023-05-10T03:59:58.923Z,27.08
2023-05-10T04:02:26.945Z,26.70
2023-05-10T04:04:54.794Z,19.88
2023-05-10T04:07:22.346Z,21.55
2023-05-10T04:09:49.851Z,16.52
2023-05-10T04:12:17.365Z,15.50
2023-05-10T04:14:44.721Z,24.58
2023-05-10T04:17:12.117Z,27.45
2023-05-10T04:19:39.568Z,29.23
2023-05-10T04:22:07.420Z,30.40
2023-05-10T04:24:34.779Z,27.85
2023-05-10T04:27:02.173Z,18.88
2023-05-10T04:29:29.616Z,21.08
2023-05-10T04:31:57.596Z,35.83
2023-05-10T04:34:25.010Z,24.70
2023-05-10T04:36:52.327Z,27.17
2023-05-10T04:39:20.033Z,26.33
2023-05-10T04:41:48.236Z,24.90
2023-05-10T04:44:16.199Z,20.17
2023-05-10T04:46:44.298Z,22.70
2023-05-10T04:49:12.077Z,18.60
2023-05-10T04:51:40.594Z,24.73
2023-05-10T04:54:08.453Z,18.45
2023-05-10T04:56:36.431Z,33.85
2023-05-10T04:59:04.008Z,24.33
2023-05-10T05:01:31.436Z,27.50
2023-05-10T05:03:59.483Z,29.60
2023-05-10T05:06:28.278Z,26.13
2023-05-10T05:08:55.878Z,24.45
2023-05-10T05:11:23.413Z,31.38
2023-05-10T05:13:50.771Z,29.40
2023-05-10T05:16:18.276Z,38.20
2023-05-10T05:18:46.235Z,33.63
2023-05-10T05:21:21.061Z,37.10
2023-05-10T05:23:49.221Z,31.17
2023-05-10T05:26:17.022Z,37.15
2023-05-10T05:28:45.376Z,24.13
2023-05-10T05:31:13.167Z,31.10
2023-05-10T05:33:41.277Z,26.95
2023-05-10T05:36:09.449Z,33.65
2023-05-10T05:38:37.487Z,32.67
2023-05-10T05:41:08.570Z,25.00
2023-05-10T05:43:38.174Z,33.33
2023-05-10T05:46:06.429Z,34.63
2023-05-10T05:48:34.322Z,40.08
2023-05-10T05:51:01.809Z,34.72
2023-05-10T05:53:29.145Z,33.92
2023-05-10T05:55:59.498Z,36.55
2023-05-10T05:58:27.286Z,33.55
2023-05-10T06:00:55.021Z,24.60
2023-05-10T06:03:22.592Z,33.95
2023-05-10T06:05:50.234Z,39.42
2023-05-10T06:08:17.893Z,27.45
2023-05-10T06:10:46.327Z,28.88
2023-05-10T06:13:13.773Z,26.48
2023-05-10T06:15:41.179Z,18.73
2023-05-10T06:18:08.667Z,25.60
2023-05-10T06:20:36.124Z,30.48
2023-05-10T06:23:03.587Z,31.45
2023-05-10T06:25:31.971Z,34.15
2023-05-10T06:27:59.409Z,28.58
2023-05-10T06:30:29.490Z,41.47
2023-05-10T06:32:59.502Z,37.78
2023-05-10T06:35:27.105Z,22.92
2023-05-10T06:37:55.061Z,32.58
2023-05-10T06:40:22.554Z,24.27
2023-05-10T06:42:50.669Z,31.45
2023-05-10T06:45:19.029Z,31.88
2023-05-10T06:47:46.876Z,29.17
2023-05-10T06:50:14.829Z,28.38
2023-05-10T06:52:44.080Z,33.90
2023-05-10T06:55:12.780Z,31.90
2023-05-10T06:57:41.344Z,37.58
2023-05-10T07:00:10.733Z,32.20
2023-05-10T07:02:38.240Z,55.88
2023-05-10T07:05:06.210Z,30.10
2023-05-10T07:07:33.618Z,35.95
2023-05-10T07:10:01.452Z,37.20
2023-05-10T07:12:28.920Z,38.22
2023-05-10T07:14:56.372Z,34.95
2023-05-10T07:17:25.828Z,31.23
2023-05-10T07:19:53.444Z,29.45
2023-05-10T07:22:21.884Z,25.60
2023-05-10T07:24:50.157Z,23.90
2023-05-10T07:27:17.694Z,20.83
2023-05-10T07:29:45.045Z,19.83
2023-05-10T07:32:12.411Z,27.25
2023-05-10T07:34:40.197Z,30.55
2023-05-10T07:37:10.431Z,22.73
2023-05-10T07:39:38.575Z,28.90
2023-05-10T07:42:06.869Z,23.75
2023-05-10T07:44:36.942Z,20.92
2023-05-10T07:47:04.677Z,19.17
2023-05-10T07:49:31.986Z,14.73
2023-05-10T07:51:59.554Z,19.02
2023-05-10T07:54:27.034Z,22.55
2023-05-10T07:56:54.394Z,14.45
2023-05-10T07:59:22.059Z,23.05
2023-05-10T08:01:49.782Z,25.33
2023-05-10T08:04:18.166Z,19.60
2023-05-10T08:06:45.767Z,19.38
2023-05-10T08:09:14.560Z,21.55
2023-05-10T08:11:42.072Z,22.63
2023-05-10T08:14:09.642Z,24.50
2023-05-10T08:16:36.988Z,24.55
2023-05-10T08:19:05.547Z,14.73
2023-05-10T08:21:33.066Z,24.25
2023-05-10T08:24:00.414Z,24.55
2023-05-10T08:26:27.906Z,22.65
2023-05-10T08:28:56.859Z,22.10
2023-05-10T08:31:24.174Z,36.45
2023-05-10T08:33:53.526Z,25.08
2023-05-10T08:36:22.823Z,14.50
2023-05-10T08:38:55.342Z,27.83
2023-05-10T08:41:27.297Z,16.70
2023-05-10T08:43:55.448Z,17.77
2023-05-10T08:46:24.471Z,15.00
2023-05-10T08:48:53.152Z,14.70
2023-05-10T08:51:26.503Z,26.30
2023-05-10T08:53:54.544Z,22.17
2023-05-10T08:56:22.311Z,14.73
2023-05-10T08:58:50.682Z,16.08
2023-05-10T09:01:20.383Z,15.02
2023-05-10T09:03:49.202Z,28.88
2023-05-10T09:06:16.827Z,12.90
2023-05-10T09:08:46.516Z,26.55
2023-05-10T09:11:14.330Z,15.77
2023-05-10T09:13:42.921Z,23.92
2023-05-10T09:16:21.343Z,17.35
2023-05-10T09:18:50.617Z,16.05
2023-05-10T09:21:18.303Z,19.92
2023-05-10T09:23:51.026Z,15.23
2023-05-10T09:26:23.067Z,16.63
2023-05-10T09:28:58.770Z,17.40
2023-05-10T09:31:49.119Z,27.67
2023-05-10T09:34:21.912Z,14.75
2023-05-10T09:36:57.584Z,14.43
2023-05-10T09:39:34.110Z,15.40
2023-05-10T09:42:07.384Z,14.55
2023-05-10T09:44:35.863Z,17.73
2023-05-10T09:47:03.974Z,22.50
2023-05-10T09:49:34.104Z,16.90
2023-05-10T09:52:02.345Z,12.00
2023-05-10T09:54:30.352Z,21.52
2023-05-10T09:56:58.114Z,10.73
2023-05-10T09:59:29.297Z,11.85
2023-05-10T10:01:59.169Z,13.40
2023-05-10T10:04:29.023Z,13.15
2023-05-10T10:07:04.600Z,18.30
2023-05-10T10:09:32.764Z,14.80
2023-05-10T10:12:04.719Z,17.83
2023-05-10T10:14:32.614Z,14.35
2023-05-10T10:19:34.544Z,15.30
2023-05-10T10:22:01.880Z,13.90
2023-05-10T10:24:29.511Z,13.98
2023-05-10T10:27:05.310Z,19.05
2023-05-10T10:29:42.940Z,22.15
2023-05-10T10:32:49.131Z,17.05
2023-05-10T10:35:17.187Z,13.60
2023-05-10T10:37:49.107Z,19.50
2023-05-10T10:40:34.463Z,14.40
2023-05-10T10:43:28.033Z,24.63
2023-05-10T10:46:15.170Z,11.90
2023-05-10T10:48:52.343Z,10.80
2023-05-10T10:51:19.744Z,8.52
2023-05-10T10:53:49.312Z,11.82
2023-05-10T10:56:19.420Z,17.27
2023-05-10T10:58:54.747Z,17.50
2023-05-10T11:01:22.809Z,16.42
2023-05-10T11:04:19.710Z,17.92
2023-05-10T11:06:47.101Z,7.93
2023-05-10T11:09:14.536Z,16.05
2023-05-10T11:11:56.176Z,10.00
2023-05-10T11:14:29.679Z,16.02
2023-05-10T11:16:57.395Z,13.38
2023-05-10T11:19:29.300Z,12.63
2023-05-10T11:22:06.146Z,14.45
2023-05-10T11:24:34.395Z,11.95
2023-05-10T11:27:02.058Z,11.15
2023-05-10T11:29:29.508Z,14.90
2023-05-10T11:31:59.818Z,15.57
2023-05-10T11:34:32.125Z,10.88
2023-05-10T11:36:59.541Z,23.88
2023-05-10T11:39:29.054Z,16.15
2023-05-10T11:41:56.676Z,12.57
2023-05-10T11:44:24.891Z,14.00
2023-05-10T11:46:52.978Z,9.32
2023-05-10T11:49:21.678Z,10.30
2023-05-10T11:51:49.984Z,7.65
2023-05-10T11:54:17.660Z,12.98
2023-05-10T11:56:45.893Z,11.40
2023-05-10T11:59:16.160Z,14.95
2023-05-10T12:01:43.762Z,7.60
2023-05-10T12:04:11.824Z,11.63
2023-05-10T12:06:41.893Z,6.60
2023-05-10T12:09:09.660Z,9.85
2023-05-10T12:11:43.903Z,16.98
2023-05-10T12:14:12.663Z,14.18
2023-05-10T12:16:41.695Z,9.48
2023-05-10T12:19:09.182Z,8.85
2023-05-10T12:21:36.772Z,18.85
2023-05-10T12:24:06.936Z,9.52
2023-05-10T12:26:35.981Z,7.57
2023-05-10T12:29:20.109Z,4.00
2023-05-10T12:31:56.756Z,8.88
2023-05-10T12:34:31.243Z,5.10
2023-05-10T12:36:59.595Z,7.65
2023-05-10T12:39:27.284Z,7.20
2023-05-10T12:41:54.622Z,9.52
2023-05-10T12:44:25.096Z,9.63
2023-05-10T12:46:52.336Z,9.45
2023-05-10T12:49:20.969Z,10.70
2023-05-10T12:51:48.447Z,9.73
2023-05-10T12:54:16.324Z,16.02
2023-05-10T12:56:44.282Z,7.63
2023-05-10T12:59:11.533Z,10.15
2023-05-10T13:01:38.997Z,12.90
2023-05-10T13:04:06.444Z,13.43
2023-05-10T13:06:33.723Z,6.55
2023-05-10T13:09:00.976Z,5.82
2023-05-10T13:11:28.564Z,7.68
2023-05-10T13:13:56.666Z,10.60
2023-05-10T13:16:24.498Z,15.07
2023-05-10T13:18:53.069Z,13.13
2023-05-10T13:21:20.463Z,13.48
2023-05-10T13:23:47.892Z,9.98
2023-05-10T13:26:15.557Z,15.93
2023-05-10T13:28:43.017Z,15.07
2023-05-10T13:31:10.289Z,15.38
2023-05-10T13:33:37.990Z,12.05
2023-05-10T13:36:06.088Z,9.90
2023-05-10T13:38:33.820Z,5.63
2023-05-10T13:41:01.342Z,10.40
2023-05-10T13:43:29.755Z,7.93
2023-05-10T13:45:57.264Z,6.82
2023-05-10T13:48:24.727Z,6.10
2023-05-10T13:50:52.067Z,9.10
2023-05-10T13:53:19.471Z,13.00
2023-05-10T13:55:46.927Z,12.98
2023-05-10T13:58:14.781Z,7.63
2023-05-10T14:00:42.122Z,13.38
2023-05-10T14:03:12.079Z,8.40
2023-05-10T14:05:39.888Z,11.27
2023-05-10T14:08:08.350Z,14.13
2023-05-10T14:10:35.713Z,5.35
2023-05-10T14:13:04.256Z,6.22
2023-05-10T14:15:32.318Z,2.65
2023-05-10T14:17:59.826Z,7.97
2023-05-10T14:20:27.731Z,10.55
2023-05-10T14:22:55.188Z,6.40
2023-05-10T14:25:22.619Z,11.93
2023-05-10T14:27:50.099Z,12.10
2023-05-10T14:30:17.556Z,17.02
2023-05-10T14:32:44.937Z,11.20
2023-05-10T14:35:15.427Z,10.00
2023-05-10T14:37:44.416Z,12.38
2023-05-10T14:40:13.370Z,8.50
2023-05-10T14:42:40.907Z,6.80
2023-05-10T14:45:11.314Z,7.38
2023-05-10T14:47:38.833Z,13.55
2023-05-10T14:50:07.982Z,12.25
2023-05-10T14:52:35.945Z,7.50
2023-05-10T14:55:03.448Z,7.30
2023-05-10T14:57:31.311Z,9.98
2023-05-10T14:59:58.883Z,9.88
2023-05-10T15:02:26.816Z,16.52
2023-05-10T15:04:54.682Z,9.77
2023-05-10T15:07:22.657Z,11.68
2023-05-10T15:09:51.146Z,9.52
2023-05-10T15:12:19.555Z,10.70
2023-05-10T15:14:47.422Z,12.63
2023-05-10T15:17:14.914Z,12.90
2023-05-10T15:19:44.034Z,7.25
2023-05-10T15:22:12.588Z,11.68
2023-05-10T15:24:41.058Z,10.70
2023-05-10T15:27:08.731Z,6.75
2023-05-10T15:29:36.811Z,8.18
2023-05-10T15:32:04.429Z,11.00
2023-05-10T15:34:34.931Z,10.07
2023-05-10T15:37:04.136Z,3.20
2023-05-10T15:39:31.426Z,11.05
2023-05-10T15:41:58.744Z,3.45
2023-05-10T15:44:26.062Z,6.97
2023-05-10T15:46:53.429Z,8.43
2023-05-10T15:49:21.128Z,10.77
2023-05-10T15:51:48.841Z,4.35
2023-05-10T15:54:17.610Z,8.48
2023-05-10T15:56:44.964Z,8.05
2023-05-10T15:59:12.350Z,8.63
2023-05-10T16:01:40.013Z,8.30
2023-05-10T16:04:07.252Z,7.30
2023-05-10T16:06:35.754Z,9.40
2023-05-10T16:09:04.016Z,8.05
2023-05-10T16:11:32.398Z,7.07
2023-05-10T16:14:00.384Z,8.35
2023-05-10T16:16:28.048Z,9.48
2023-05-10T16:18:56.206Z,8.45
2023-05-10T16:21:24.137Z,11.25
2023-05-10T16:23:51.506Z,8.68
2023-05-10T16:26:18.917Z,12.32
2023-05-10T16:28:47.352Z,9.65
2023-05-10T16:31:14.781Z,7.20
2023-05-10T16:33:42.389Z,12.85
2023-05-10T16:36:09.907Z,6.70
2023-05-10T16:38:37.843Z,6.32
2023-05-10T16:41:06.657Z,8.88
2023-05-10T16:43:34.226Z,4.88
2023-05-10T16:46:01.916Z,4.65
2023-05-10T16:48:29.307Z,4.25
2023-05-10T16:50:56.802Z,1.70
2023-05-10T16:53:24.215Z,4.20
2023-05-10T16:55:51.644Z,6.68
2023-05-10T16:58:19.083Z,5.35
2023-05-10T17:00:46.945Z,12.15
2023-05-10T17:03:14.478Z,10.43
2023-05-10T17:05:43.039Z,11.85
2023-05-10T17:08:10.564Z,4.78
2023-05-10T17:10:40.466Z,6.18
2023-05-10T17:13:09.838Z,6.22
2023-05-10T17:15:38.821Z,2.45
2023-05-10T17:18:07.466Z,7.57
2023-05-10T17:20:34.894Z,9.25
2023-05-10T17:23:03.242Z,4.03
2023-05-10T17:25:30.738Z,4.30
2023-05-10T17:27:58.075Z,5.45
2023-05-10T17:30:28.762Z,14.73
2023-05-10T17:32:56.320Z,5.32
2023-05-10T17:35:24.231Z,11.80
2023-05-10T17:37:51.820Z,12.18
2023-05-10T17:40:19.388Z,9.10
2023-05-10T17:42:46.762Z,15.70
2023-05-10T17:45:14.580Z,9.82
2023-05-10T17:47:42.578Z,11.18
2023-05-10T17:50:10.572Z,7.15
2023-05-10T17:52:38.106Z,11.75
2023-05-10T17:55:06.380Z,6.15
2023-05-10T17:57:33.926Z,9.52
2023-05-10T18:00:02.292Z,7.18
2023-05-10T18:02:32.672Z,10.02
2023-05-10T18:05:01.741Z,10.80
2023-05-10T18:07:30.758Z,7.28
2023-05-10T18:09:58.796Z,7.88
2023-05-10T18:12:26.605Z,21.33
2023-05-10T18:14:53.979Z,15.02
2023-05-10T18:17:21.428Z,14.43
2023-05-10T18:19:48.870Z,10.13
2023-05-10T18:22:16.719Z,7.97
2023-05-10T18:24:44.097Z,8.52
2023-05-10T18:27:11.943Z,8.02
2023-05-10T18:29:39.568Z,13.45
2023-05-10T18:32:07.466Z,8.82
2023-05-10T18:34:34.694Z,6.60
2023-05-10T18:37:08.277Z,6.22
2023-05-10T18:39:37.275Z,6.85
2023-05-10T18:42:06.576Z,10.18
2023-05-10T18:44:34.055Z,10.57
2023-05-10T18:47:01.524Z,8.35
2023-05-10T18:49:29.428Z,6.47
2023-05-10T18:51:57.312Z,4.93
2023-05-10T18:54:25.069Z,10.63
2023-05-10T18:56:52.356Z,13.27
2023-05-10T18:59:19.720Z,8.30
2023-05-10T19:01:48.364Z,12.07
2023-05-10T19:04:18.071Z,13.13
2023-05-10T19:06:45.869Z,16.65
2023-05-10T19:09:13.257Z,13.80
2023-05-10T19:11:41.171Z,13.77
2023-05-10T19:14:10.122Z,21.27
2023-05-10T19:16:37.980Z,13.43
2023-05-10T19:19:08.703Z,9.18
2023-05-10T19:21:36.301Z,10.55
2023-05-10T19:24:05.441Z,8.38
2023-05-10T19:26:35.072Z,11.30
2023-05-10T19:29:04.827Z,9.60
2023-05-10T19:31:33.604Z,14.73
2023-05-10T19:34:01.187Z,12.20
2023-05-10T19:36:28.665Z,9.80
2023-05-10T19:38:55.973Z,14.32
2023-05-10T19:41:23.330Z,18.23
2023-05-10T19:43:50.760Z,14.40
2023-05-10T19:46:20.142Z,14.10
2023-05-10T19:48:51.063Z,8.73
2023-05-10T19:51:19.869Z,12.18
2023-05-10T19:53:47.311Z,11.27
2023-05-10T19:56:14.777Z,9.23
2023-05-10T19:58:42.268Z,8.10
2023-05-10T20:01:09.845Z,15.65
2023-05-10T20:03:37.332Z,8.65
2023-05-10T20:06:05.808Z,11.82
2023-05-10T20:08:34.349Z,14.10
2023-05-10T20:11:03.699Z,12.63
2023-05-10T20:13:31.475Z,12.25
2023-05-10T20:15:59.676Z,25.95
2023-05-10T20:18:27.272Z,15.30
2023-05-10T20:20:56.113Z,14.10
2023-05-10T20:23:23.616Z,18.60
2023-05-10T20:25:51.160Z,15.88
2023-05-10T20:28:26.286Z,19.45
2023-05-10T20:30:54.985Z,12.95
2023-05-10T20:33:22.941Z,10.10
2023-05-10T20:35:51.384Z,20.40
2023-05-10T20:38:18.824Z,11.15
2023-05-10T20:40:47.415Z,13.60
2023-05-10T20:43:14.841Z,15.60
2023-05-10T20:45:42.352Z,12.73
2023-05-10T20:48:09.860Z,8.20
2023-05-10T20:50:37.402Z,13.52
2023-05-10T20:53:04.830Z,6.47
2023-05-10T20:55:32.240Z,9.10
2023-05-10T20:57:59.651Z,5.75
2023-05-10T21:00:27.049Z,6.45
2023-05-10T21:02:54.620Z,11.20
2023-05-10T21:05:23.722Z,7.47
2023-05-10T21:07:54.105Z,7.10
2023-05-10T21:10:22.071Z,17.63
2023-05-10T21:12:50.508Z,11.27
2023-05-10T21:15:18.159Z,11.18
2023-05-10T21:17:45.822Z,14.13
2023-05-10T21:20:13.636Z,10.40
2023-05-10T21:22:41.008Z,12.25
2023-05-10T21:25:08.754Z,11.77
2023-05-10T21:27:36.148Z,16.00
2023-05-10T21:30:03.768Z,13.18
2023-05-10T21:32:31.955Z,13.52
2023-05-10T21:34:59.400Z,18.40
2023-05-10T21:37:26.825Z,14.07
2023-05-10T21:39:54.228Z,21.52
2023-05-10T21:42:22.628Z,13.60
2023-05-10T21:44:50.091Z,15.73
2023-05-10T21:47:17.403Z,13.02
2023-05-10T21:49:44.995Z,11.30
2023-05-10T21:52:12.467Z,10.30
2023-05-10T21:54:40.108Z,19.08
2023-05-10T21:57:07.706Z,12.13
2023-05-10T21:59:35.140Z,15.18
2023-05-10T22:02:02.636Z,15.63
2023-05-10T22:04:30.982Z,12.07
2023-05-10T22:06:58.441Z,13.25
2023-05-10T22:09:26.016Z,12.80
2023-05-10T22:11:53.252Z,12.65
2023-05-10T22:14:21.713Z,11.60
2023-05-10T22:16:49.141Z,17.90
2023-05-10T22:19:16.404Z,14.77
2023-05-10T22:21:44.616Z,11.82
2023-05-10T22:24:12.064Z,12.35
2023-05-10T22:26:39.781Z,7.47
2023-05-10T22:29:07.196Z,6.55
2023-05-10T22:31:34.732Z,16.15
2023-05-10T22:34:02.467Z,13.98
2023-05-10T22:36:31.598Z,12.63
2023-05-10T22:38:58.951Z,11.70
2023-05-10T22:41:26.443Z,10.15
2023-05-10T22:43:53.853Z,10.02
2023-05-10T22:46:21.352Z,13.35
2023-05-10T22:48:48.785Z,16.45
2023-05-10T22:51:16.165Z,9.27
2023-05-10T22:53:43.579Z,7.32
2023-05-10T22:56:11.012Z,9.07
2023-05-10T22:58:39.400Z,18.38
2023-05-10T23:01:07.166Z,10.13
2023-05-10T23:03:34.560Z,9.35
2023-05-10T23:06:02.619Z,14.10
2023-05-10T23:08:29.991Z,8.82
2023-05-10T23:10:57.354Z,7.40
2023-05-10T23:13:24.856Z,11.15
2023-05-10T23:15:52.364Z,7.28
2023-05-10T23:18:19.706Z,12.73
2023-05-10T23:20:47.334Z,9.32
2023-05-10T23:23:14.762Z,8.27
2023-05-10T23:25:42.382Z,16.45
2023-05-10T23:28:09.812Z,11.02
2023-05-10T23:30:37.086Z,5.88
2023-05-10T23:33:04.834Z,7.57
2023-05-10T23:35:33.837Z,9.88
2023-05-10T23:38:01.118Z,6.25
2023-05-10T23:40:28.647Z,8.77
2023-05-10T23:42:55.878Z,6.55
2023-05-10T23:45:23.256Z,7.60
2023-05-10T23:47:50.664Z,14.27
2023-05-10T23:50:18.652Z,7.20
2023-05-10T23:52:46.968Z,5.25
2023-05-10T23:55:14.511Z,6.85
2023-05-10T23:57:41.823Z,6.00
